sensor_id;sensor_type;location;lat;lon;timestamp;P1;durP1;ratioP1;P2;durP2;ratioP2
65238;SDS011;51827;51.186;6.926;2022-12-29T00:00:59;2.40;;;1.10;;
65238;SDS011;51827;51.186;6.926;2022-12-29T00:02:00;3.88;;;1.20;;
65238;SDS011;51827;51.186;6.926;2022-12-29T00:03:01;4.15;;;1.10;;
65238;SDS011;51827;51.186;6.926;2022-12-29T00:04:01;2.03;;;1.10;;
65238;SDS011;51827;51.186;6.926;2022-12-29T00:06:03;2.00;;;1.13;;
65238;SDS011;51827;51.186;6.926;2022-12-29T00:07:03;2.40;;;1.17;;
65238;SDS011;51827;51.186;6.926;2022-12-29T00:08:04;1.52;;;1.08;;
65238;SDS011;51827;51.186;6.926;2022-12-29T00:09:04;3.37;;;1.13;;
65238;SDS011;51827;51.186;6.926;2022-12-29T00:10:05;2.00;;;1.07;;
65238;SDS011;51827;51.186;6.926;2022-12-29T00:12:07;2.23;;;1.27;;
65238;SDS011;51827;51.186;6.926;2022-12-29T00:13:07;1.90;;;1.03;;
65238;SDS011;51827;51.186;6.926;2022-12-29T00:14:10;2.97;;;1.10;;
65238;SDS011;51827;51.186;6.926;2022-12-29T00:15:11;5.68;;;1.40;;
65238;SDS011;51827;51.186;6.926;2022-12-29T00:16:11;2.07;;;1.17;;
65238;SDS011;51827;51.186;6.926;2022-12-29T00:17:12;1.67;;;0.90;;
65238;SDS011;51827;51.186;6.926;2022-12-29T00:18:12;2.70;;;1.20;;
65238;SDS011;51827;51.186;6.926;2022-12-29T00:19:13;1.63;;;1.03;;
65238;SDS011;51827;51.186;6.926;2022-12-29T00:20:13;2.40;;;1.07;;
65238;SDS011;51827;51.186;6.926;2022-12-29T00:21:14;2.40;;;1.10;;
65238;SDS011;51827;51.186;6.926;2022-12-29T00:22:15;1.95;;;1.00;;
65238;SDS011;51827;51.186;6.926;2022-12-29T00:23:16;1.30;;;1.00;;
65238;SDS011;51827;51.186;6.926;2022-12-29T00:24:20;2.33;;;1.20;;
65238;SDS011;51827;51.186;6.926;2022-12-29T00:25:21;6.22;;;1.20;;
65238;SDS011;51827;51.186;6.926;2022-12-29T00:26:21;2.40;;;1.10;;
65238;SDS011;51827;51.186;6.926;2022-12-29T00:27:22;2.37;;;0.90;;
65238;SDS011;51827;51.186;6.926;2022-12-29T00:28:22;2.90;;;1.30;;
65238;SDS011;51827;51.186;6.926;2022-12-29T00:29:22;3.17;;;1.40;;
65238;SDS011;51827;51.186;6.926;2022-12-29T00:30:23;2.87;;;1.00;;
65238;SDS011;51827;51.186;6.926;2022-12-29T00:31:23;2.00;;;1.00;;
65238;SDS011;51827;51.186;6.926;2022-12-29T00:32:23;1.90;;;0.90;;
65238;SDS011;51827;51.186;6.926;2022-12-29T00:33:33;1.37;;;1.00;;
65238;SDS011;51827;51.186;6.926;2022-12-29T00:34:33;3.10;;;1.00;;
65238;SDS011;51827;51.186;6.926;2022-12-29T00:35:44;2.27;;;0.93;;
65238;SDS011;51827;51.186;6.926;2022-12-29T00:36:48;1.58;;;1.00;;
65238;SDS011;51827;51.186;6.926;2022-12-29T00:37:48;2.13;;;1.07;;
65238;SDS011;51827;51.186;6.926;2022-12-29T00:38:50;2.70;;;1.07;;
65238;SDS011;51827;51.186;6.926;2022-12-29T00:39:53;2.10;;;1.13;;
65238;SDS011;51827;51.186;6.926;2022-12-29T00:40:53;2.40;;;1.27;;
65238;SDS011;51827;51.186;6.926;2022-12-29T00:41:53;2.70;;;1.10;;
65238;SDS011;51827;51.186;6.926;2022-12-29T00:42:53;1.87;;;1.07;;
65238;SDS011;51827;51.186;6.926;2022-12-29T00:43:53;2.20;;;1.03;;
65238;SDS011;51827;51.186;6.926;2022-12-29T00:44:54;1.70;;;0.90;;
65238;SDS011;51827;51.186;6.926;2022-12-29T00:45:54;1.63;;;0.90;;
65238;SDS011;51827;51.186;6.926;2022-12-29T00:46:54;1.77;;;1.02;;
65238;SDS011;51827;51.186;6.926;2022-12-29T00:47:55;1.50;;;0.93;;
65238;SDS011;51827;51.186;6.926;2022-12-29T00:48:55;1.70;;;0.90;;
65238;SDS011;51827;51.186;6.926;2022-12-29T00:49:56;1.77;;;0.90;;
65238;SDS011;51827;51.186;6.926;2022-12-29T00:50:56;2.23;;;0.93;;
65238;SDS011;51827;51.186;6.926;2022-12-29T00:52:06;2.70;;;1.10;;
65238;SDS011;51827;51.186;6.926;2022-12-29T00:53:09;4.13;;;1.58;;
65238;SDS011;51827;51.186;6.926;2022-12-29T00:54:09;1.80;;;1.10;;
65238;SDS011;51827;51.186;6.926;2022-12-29T00:55:09;2.60;;;1.10;;
65238;SDS011;51827;51.186;6.926;2022-12-29T00:56:09;3.33;;;1.00;;
65238;SDS011;51827;51.186;6.926;2022-12-29T00:57:10;1.17;;;0.97;;
65238;SDS011;51827;51.186;6.926;2022-12-29T00:58:10;1.40;;;0.80;;
65238;SDS011;51827;51.186;6.926;2022-12-29T00:59:11;1.87;;;1.00;;
65238;SDS011;51827;51.186;6.926;2022-12-29T01:00:11;1.60;;;0.90;;
65238;SDS011;51827;51.186;6.926;2022-12-29T01:01:12;2.30;;;0.93;;
65238;SDS011;51827;51.186;6.926;2022-12-29T01:02:12;3.50;;;1.10;;
65238;SDS011;51827;51.186;6.926;2022-12-29T01:03:12;2.57;;;1.37;;
65238;SDS011;51827;51.186;6.926;2022-12-29T01:04:12;1.33;;;0.90;;
65238;SDS011;51827;51.186;6.926;2022-12-29T01:05:13;1.25;;;0.95;;
65238;SDS011;51827;51.186;6.926;2022-12-29T01:06:13;2.13;;;1.10;;
65238;SDS011;51827;51.186;6.926;2022-12-29T01:07:14;1.97;;;1.00;;
65238;SDS011;51827;51.186;6.926;2022-12-29T01:08:14;2.43;;;1.00;;
65238;SDS011;51827;51.186;6.926;2022-12-29T01:09:15;1.13;;;0.90;;
65238;SDS011;51827;51.186;6.926;2022-12-29T01:10:16;1.05;;;0.80;;
65238;SDS011;51827;51.186;6.926;2022-12-29T01:11:16;1.43;;;1.00;;
65238;SDS011;51827;51.186;6.926;2022-12-29T01:12:16;1.43;;;1.20;;
65238;SDS011;51827;51.186;6.926;2022-12-29T01:13:17;2.00;;;0.90;;
65238;SDS011;51827;51.186;6.926;2022-12-29T01:14:17;2.23;;;0.90;;
65238;SDS011;51827;51.186;6.926;2022-12-29T01:15:18;1.25;;;0.98;;
65238;SDS011;51827;51.186;6.926;2022-12-29T01:16:19;1.63;;;1.00;;
65238;SDS011;51827;51.186;6.926;2022-12-29T01:17:19;2.80;;;1.07;;
65238;SDS011;51827;51.186;6.926;2022-12-29T01:18:20;1.50;;;1.00;;
65238;SDS011;51827;51.186;6.926;2022-12-29T01:19:22;6.20;;;1.00;;
65238;SDS011;51827;51.186;6.926;2022-12-29T01:20:22;1.70;;;1.10;;
65238;SDS011;51827;51.186;6.926;2022-12-29T01:21:23;2.00;;;1.00;;
65238;SDS011;51827;51.186;6.926;2022-12-29T01:22:23;2.25;;;0.98;;
65238;SDS011;51827;51.186;6.926;2022-12-29T01:23:23;1.53;;;0.97;;
65238;SDS011;51827;51.186;6.926;2022-12-29T01:24:24;1.03;;;0.90;;
65238;SDS011;51827;51.186;6.926;2022-12-29T01:25:24;1.40;;;0.90;;
65238;SDS011;51827;51.186;6.926;2022-12-29T01:26:24;1.57;;;0.90;;
65238;SDS011;51827;51.186;6.926;2022-12-29T01:27:24;1.60;;;0.90;;
65238;SDS011;51827;51.186;6.926;2022-12-29T01:28:25;1.48;;;0.90;;
65238;SDS011;51827;51.186;6.926;2022-12-29T01:29:25;2.00;;;1.20;;
65238;SDS011;51827;51.186;6.926;2022-12-29T01:30:26;2.53;;;0.90;;
65238;SDS011;51827;51.186;6.926;2022-12-29T01:31:26;1.50;;;0.90;;
65238;SDS011;51827;51.186;6.926;2022-12-29T01:32:26;1.90;;;1.00;;
65238;SDS011;51827;51.186;6.926;2022-12-29T01:33:26;1.97;;;1.00;;
65238;SDS011;51827;51.186;6.926;2022-12-29T01:34:27;1.77;;;1.00;;
65238;SDS011;51827;51.186;6.926;2022-12-29T01:35:27;1.40;;;0.83;;
65238;SDS011;51827;51.186;6.926;2022-12-29T01:36:27;2.30;;;1.00;;
65238;SDS011;51827;51.186;6.926;2022-12-29T01:37:28;1.90;;;1.00;;
65238;SDS011;51827;51.186;6.926;2022-12-29T01:38:28;2.50;;;1.10;;
65238;SDS011;51827;51.186;6.926;2022-12-29T01:39:28;0.97;;;0.80;;
65238;SDS011;51827;51.186;6.926;2022-12-29T01:40:28;2.93;;;1.13;;
65238;SDS011;51827;51.186;6.926;2022-12-29T01:41:29;1.90;;;1.00;;
65238;SDS011;51827;51.186;6.926;2022-12-29T01:42:29;1.47;;;1.00;;
65238;SDS011;51827;51.186;6.926;2022-12-29T01:44:57;1.95;;;1.00;;
65238;SDS011;51827;51.186;6.926;2022-12-29T01:46:00;1.20;;;0.90;;
65238;SDS011;51827;51.186;6.926;2022-12-29T01:47:00;1.97;;;0.97;;
65238;SDS011;51827;51.186;6.926;2022-12-29T01:48:02;1.27;;;0.90;;
65238;SDS011;51827;51.186;6.926;2022-12-29T01:49:10;1.50;;;0.90;;
65238;SDS011;51827;51.186;6.926;2022-12-29T01:50:22;1.63;;;1.13;;
65238;SDS011;51827;51.186;6.926;2022-12-29T01:51:26;1.73;;;0.90;;
65238;SDS011;51827;51.186;6.926;2022-12-29T01:52:31;1.33;;;0.90;;
65238;SDS011;51827;51.186;6.926;2022-12-29T01:53:33;2.45;;;0.90;;
65238;SDS011;51827;51.186;6.926;2022-12-29T01:55:39;2.08;;;0.95;;
65238;SDS011;51827;51.186;6.926;2022-12-29T01:56:46;1.73;;;1.00;;
65238;SDS011;51827;51.186;6.926;2022-12-29T01:58:50;1.48;;;1.00;;
65238;SDS011;51827;51.186;6.926;2022-12-29T02:00:09;1.20;;;0.70;;
65238;SDS011;51827;51.186;6.926;2022-12-29T02:01:11;2.25;;;1.05;;
65238;SDS011;51827;51.186;6.926;2022-12-29T02:02:11;1.63;;;1.05;;
65238;SDS011;51827;51.186;6.926;2022-12-29T02:03:11;1.00;;;0.70;;
65238;SDS011;51827;51.186;6.926;2022-12-29T02:04:12;1.30;;;0.90;;
65238;SDS011;51827;51.186;6.926;2022-12-29T02:05:19;1.63;;;0.95;;
65238;SDS011;51827;51.186;6.926;2022-12-29T02:07:25;1.35;;;1.02;;
65238;SDS011;51827;51.186;6.926;2022-12-29T02:08:28;1.75;;;1.00;;
65238;SDS011;51827;51.186;6.926;2022-12-29T02:09:29;2.42;;;0.93;;
65238;SDS011;51827;51.186;6.926;2022-12-29T02:10:30;1.95;;;0.98;;
65238;SDS011;51827;51.186;6.926;2022-12-29T02:11:32;1.70;;;0.82;;
65238;SDS011;51827;51.186;6.926;2022-12-29T02:12:35;1.58;;;0.80;;
65238;SDS011;51827;51.186;6.926;2022-12-29T02:13:35;1.10;;;0.90;;
65238;SDS011;51827;51.186;6.926;2022-12-29T02:14:35;1.10;;;0.87;;
65238;SDS011;51827;51.186;6.926;2022-12-29T02:19:04;1.50;;;0.80;;
65238;SDS011;51827;51.186;6.926;2022-12-29T02:25:36;0.73;;;0.70;;
65238;SDS011;51827;51.186;6.926;2022-12-29T02:27:26;1.65;;;0.80;;
65238;SDS011;51827;51.186;6.926;2022-12-29T02:34:44;1.55;;;0.90;;
65238;SDS011;51827;51.186;6.926;2022-12-29T02:36:03;1.33;;;0.90;;
65238;SDS011;51827;51.186;6.926;2022-12-29T02:42:03;1.67;;;0.75;;
65238;SDS011;51827;51.186;6.926;2022-12-29T02:43:33;0.80;;;0.70;;
65238;SDS011;51827;51.186;6.926;2022-12-29T02:46:26;2.33;;;1.00;;
65238;SDS011;51827;51.186;6.926;2022-12-29T02:47:37;1.58;;;0.90;;
65238;SDS011;51827;51.186;6.926;2022-12-29T02:48:47;2.72;;;1.45;;
65238;SDS011;51827;51.186;6.926;2022-12-29T02:50:01;1.10;;;0.80;;
65238;SDS011;51827;51.186;6.926;2022-12-29T02:51:23;1.63;;;0.80;;
65238;SDS011;51827;51.186;6.926;2022-12-29T02:52:29;1.85;;;0.90;;
65238;SDS011;51827;51.186;6.926;2022-12-29T02:53:34;0.82;;;0.70;;
65238;SDS011;51827;51.186;6.926;2022-12-29T02:54:36;1.42;;;0.80;;
65238;SDS011;51827;51.186;6.926;2022-12-29T02:55:36;4.13;;;1.00;;
65238;SDS011;51827;51.186;6.926;2022-12-29T02:56:37;1.20;;;0.80;;
65238;SDS011;51827;51.186;6.926;2022-12-29T02:57:37;1.30;;;0.77;;
65238;SDS011;51827;51.186;6.926;2022-12-29T02:58:37;1.03;;;0.80;;
65238;SDS011;51827;51.186;6.926;2022-12-29T02:59:37;1.43;;;0.80;;
65238;SDS011;51827;51.186;6.926;2022-12-29T03:00:41;1.23;;;0.80;;
65238;SDS011;51827;51.186;6.926;2022-12-29T03:04:31;0.65;;;0.60;;
65238;SDS011;51827;51.186;6.926;2022-12-29T03:05:50;0.93;;;0.80;;
65238;SDS011;51827;51.186;6.926;2022-12-29T03:07:10;1.13;;;0.80;;
65238;SDS011;51827;51.186;6.926;2022-12-29T03:11:41;1.38;;;0.85;;
65238;SDS011;51827;51.186;6.926;2022-12-29T03:14:39;1.30;;;0.88;;
65238;SDS011;51827;51.186;6.926;2022-12-29T03:17:18;0.73;;;0.60;;
65238;SDS011;51827;51.186;6.926;2022-12-29T03:18:45;1.08;;;0.80;;
65238;SDS011;51827;51.186;6.926;2022-12-29T03:20:09;1.25;;;0.77;;
65238;SDS011;51827;51.186;6.926;2022-12-29T03:22:56;1.13;;;0.82;;
65238;SDS011;51827;51.186;6.926;2022-12-29T03:24:00;1.38;;;0.80;;
65238;SDS011;51827;51.186;6.926;2022-12-29T03:25:14;1.88;;;0.95;;
65238;SDS011;51827;51.186;6.926;2022-12-29T03:26:19;0.73;;;0.70;;
65238;SDS011;51827;51.186;6.926;2022-12-29T03:27:25;1.58;;;0.80;;
65238;SDS011;51827;51.186;6.926;2022-12-29T03:28:32;1.25;;;0.70;;
65238;SDS011;51827;51.186;6.926;2022-12-29T03:31:06;1.15;;;0.85;;
65238;SDS011;51827;51.186;6.926;2022-12-29T03:32:08;0.73;;;0.73;;
65238;SDS011;51827;51.186;6.926;2022-12-29T03:33:12;0.93;;;0.73;;
65238;SDS011;51827;51.186;6.926;2022-12-29T03:34:16;0.82;;;0.70;;
65238;SDS011;51827;51.186;6.926;2022-12-29T03:35:20;3.50;;;0.90;;
65238;SDS011;51827;51.186;6.926;2022-12-29T03:36:35;0.98;;;0.75;;
65238;SDS011;51827;51.186;6.926;2022-12-29T03:37:48;0.60;;;0.60;;
65238;SDS011;51827;51.186;6.926;2022-12-29T03:38:58;1.20;;;0.70;;
65238;SDS011;51827;51.186;6.926;2022-12-29T03:40:02;0.80;;;0.68;;
65238;SDS011;51827;51.186;6.926;2022-12-29T03:41:05;0.73;;;0.70;;
65238;SDS011;51827;51.186;6.926;2022-12-29T03:42:19;1.25;;;0.93;;
65238;SDS011;51827;51.186;6.926;2022-12-29T03:43:21;1.65;;;0.90;;
65238;SDS011;51827;51.186;6.926;2022-12-29T03:44:22;0.90;;;0.80;;
65238;SDS011;51827;51.186;6.926;2022-12-29T03:45:37;1.40;;;0.80;;
65238;SDS011;51827;51.186;6.926;2022-12-29T03:46:38;0.73;;;0.70;;
65238;SDS011;51827;51.186;6.926;2022-12-29T03:47:38;0.90;;;0.70;;
65238;SDS011;51827;51.186;6.926;2022-12-29T03:48:38;3.37;;;1.10;;
65238;SDS011;51827;51.186;6.926;2022-12-29T03:49:39;2.43;;;0.80;;
65238;SDS011;51827;51.186;6.926;2022-12-29T03:50:39;1.37;;;0.97;;
65238;SDS011;51827;51.186;6.926;2022-12-29T03:51:39;1.30;;;0.80;;
65238;SDS011;51827;51.186;6.926;2022-12-29T03:52:39;1.00;;;0.80;;
65238;SDS011;51827;51.186;6.926;2022-12-29T03:53:40;1.30;;;0.80;;
65238;SDS011;51827;51.186;6.926;2022-12-29T03:54:40;0.70;;;0.70;;
65238;SDS011;51827;51.186;6.926;2022-12-29T03:55:40;0.97;;;0.77;;
65238;SDS011;51827;51.186;6.926;2022-12-29T03:56:40;1.43;;;0.90;;
65238;SDS011;51827;51.186;6.926;2022-12-29T03:57:41;1.03;;;0.77;;
65238;SDS011;51827;51.186;6.926;2022-12-29T03:58:41;0.73;;;0.70;;
65238;SDS011;51827;51.186;6.926;2022-12-29T03:59:41;4.30;;;0.80;;
65238;SDS011;51827;51.186;6.926;2022-12-29T04:00:41;1.20;;;0.80;;
65238;SDS011;51827;51.186;6.926;2022-12-29T04:01:42;0.90;;;0.80;;
65238;SDS011;51827;51.186;6.926;2022-12-29T04:02:42;0.90;;;0.70;;
65238;SDS011;51827;51.186;6.926;2022-12-29T04:03:42;1.50;;;0.80;;
65238;SDS011;51827;51.186;6.926;2022-12-29T04:04:42;0.93;;;0.83;;
65238;SDS011;51827;51.186;6.926;2022-12-29T04:05:43;0.83;;;0.73;;
65238;SDS011;51827;51.186;6.926;2022-12-29T04:06:43;2.20;;;0.80;;
65238;SDS011;51827;51.186;6.926;2022-12-29T04:07:43;1.87;;;0.80;;
65238;SDS011;51827;51.186;6.926;2022-12-29T04:08:43;1.37;;;0.73;;
65238;SDS011;51827;51.186;6.926;2022-12-29T04:09:44;2.07;;;0.90;;
65238;SDS011;51827;51.186;6.926;2022-12-29T04:10:44;0.80;;;0.70;;
65238;SDS011;51827;51.186;6.926;2022-12-29T04:11:44;2.27;;;0.70;;
65238;SDS011;51827;51.186;6.926;2022-12-29T04:12:44;2.13;;;0.80;;
65238;SDS011;51827;51.186;6.926;2022-12-29T04:13:45;1.83;;;0.80;;
65238;SDS011;51827;51.186;6.926;2022-12-29T04:14:45;1.23;;;0.80;;
65238;SDS011;51827;51.186;6.926;2022-12-29T04:15:45;1.33;;;0.80;;
65238;SDS011;51827;51.186;6.926;2022-12-29T04:16:45;1.10;;;0.80;;
65238;SDS011;51827;51.186;6.926;2022-12-29T04:17:46;0.80;;;0.80;;
65238;SDS011;51827;51.186;6.926;2022-12-29T04:18:46;1.10;;;0.80;;
65238;SDS011;51827;51.186;6.926;2022-12-29T04:19:46;0.97;;;0.80;;
65238;SDS011;51827;51.186;6.926;2022-12-29T04:20:47;0.90;;;0.75;;
65238;SDS011;51827;51.186;6.926;2022-12-29T04:21:47;2.03;;;0.77;;
65238;SDS011;51827;51.186;6.926;2022-12-29T04:22:47;1.10;;;0.73;;
65238;SDS011;51827;51.186;6.926;2022-12-29T04:23:48;1.87;;;0.87;;
65238;SDS011;51827;51.186;6.926;2022-12-29T04:24:48;0.83;;;0.80;;
65238;SDS011;51827;51.186;6.926;2022-12-29T04:25:48;0.87;;;0.70;;
65238;SDS011;51827;51.186;6.926;2022-12-29T04:26:52;1.10;;;0.70;;
65238;SDS011;51827;51.186;6.926;2022-12-29T04:27:53;1.77;;;0.90;;
65238;SDS011;51827;51.186;6.926;2022-12-29T04:28:53;1.20;;;0.80;;
65238;SDS011;51827;51.186;6.926;2022-12-29T04:29:53;0.97;;;0.70;;
65238;SDS011;51827;51.186;6.926;2022-12-29T04:30:53;1.60;;;0.60;;
65238;SDS011;51827;51.186;6.926;2022-12-29T04:31:54;1.83;;;0.70;;
65238;SDS011;51827;51.186;6.926;2022-12-29T04:32:54;0.83;;;0.70;;
65238;SDS011;51827;51.186;6.926;2022-12-29T04:33:54;0.80;;;0.60;;
65238;SDS011;51827;51.186;6.926;2022-12-29T04:34:54;1.00;;;0.73;;
65238;SDS011;51827;51.186;6.926;2022-12-29T04:35:55;1.73;;;0.60;;
65238;SDS011;51827;51.186;6.926;2022-12-29T04:36:55;1.70;;;1.02;;
65238;SDS011;51827;51.186;6.926;2022-12-29T04:37:55;0.73;;;0.67;;
65238;SDS011;51827;51.186;6.926;2022-12-29T04:38:56;1.50;;;0.80;;
65238;SDS011;51827;51.186;6.926;2022-12-29T04:39:56;1.00;;;0.80;;
65238;SDS011;51827;51.186;6.926;2022-12-29T04:40:58;1.53;;;0.83;;
65238;SDS011;51827;51.186;6.926;2022-12-29T04:42:00;1.00;;;0.80;;
65238;SDS011;51827;51.186;6.926;2022-12-29T04:43:00;1.10;;;0.73;;
65238;SDS011;51827;51.186;6.926;2022-12-29T04:44:00;0.63;;;0.63;;
65238;SDS011;51827;51.186;6.926;2022-12-29T04:45:01;0.60;;;0.60;;
65238;SDS011;51827;51.186;6.926;2022-12-29T04:46:01;0.98;;;0.77;;
65238;SDS011;51827;51.186;6.926;2022-12-29T04:47:01;0.60;;;0.60;;
65238;SDS011;51827;51.186;6.926;2022-12-29T04:48:02;1.33;;;0.70;;
65238;SDS011;51827;51.186;6.926;2022-12-29T04:49:02;1.15;;;0.82;;
65238;SDS011;51827;51.186;6.926;2022-12-29T04:50:03;1.80;;;0.73;;
65238;SDS011;51827;51.186;6.926;2022-12-29T04:51:03;1.30;;;0.88;;
65238;SDS011;51827;51.186;6.926;2022-12-29T04:52:03;2.30;;;0.70;;
65238;SDS011;51827;51.186;6.926;2022-12-29T04:53:04;0.83;;;0.80;;
65238;SDS011;51827;51.186;6.926;2022-12-29T04:54:04;1.10;;;0.60;;
65238;SDS011;51827;51.186;6.926;2022-12-29T04:55:05;0.80;;;0.70;;
65238;SDS011;51827;51.186;6.926;2022-12-29T04:56:05;1.00;;;0.80;;
65238;SDS011;51827;51.186;6.926;2022-12-29T04:57:06;1.10;;;0.80;;
65238;SDS011;51827;51.186;6.926;2022-12-29T04:58:06;0.70;;;0.60;;
65238;SDS011;51827;51.186;6.926;2022-12-29T04:59:06;2.60;;;0.77;;
65238;SDS011;51827;51.186;6.926;2022-12-29T05:00:07;1.43;;;0.73;;
65238;SDS011;51827;51.186;6.926;2022-12-29T05:01:07;1.90;;;0.70;;
65238;SDS011;51827;51.186;6.926;2022-12-29T05:02:08;1.00;;;0.70;;
65238;SDS011;51827;51.186;6.926;2022-12-29T05:03:08;1.00;;;0.63;;
65238;SDS011;51827;51.186;6.926;2022-12-29T05:04:08;1.17;;;0.70;;
65238;SDS011;51827;51.186;6.926;2022-12-29T05:05:09;0.80;;;0.70;;
65238;SDS011;51827;51.186;6.926;2022-12-29T05:06:09;0.98;;;0.70;;
65238;SDS011;51827;51.186;6.926;2022-12-29T05:07:09;1.33;;;0.80;;
65238;SDS011;51827;51.186;6.926;2022-12-29T05:08:10;1.10;;;0.80;;
65238;SDS011;51827;51.186;6.926;2022-12-29T05:09:10;0.90;;;0.70;;
65238;SDS011;51827;51.186;6.926;2022-12-29T05:10:10;1.03;;;0.80;;
65238;SDS011;51827;51.186;6.926;2022-12-29T05:11:11;0.70;;;0.70;;
65238;SDS011;51827;51.186;6.926;2022-12-29T05:12:11;1.00;;;0.80;;
65238;SDS011;51827;51.186;6.926;2022-12-29T05:13:12;1.03;;;0.60;;
65238;SDS011;51827;51.186;6.926;2022-12-29T05:14:12;1.13;;;0.80;;
65238;SDS011;51827;51.186;6.926;2022-12-29T05:15:12;0.70;;;0.70;;
65238;SDS011;51827;51.186;6.926;2022-12-29T05:16:12;1.00;;;0.80;;
65238;SDS011;51827;51.186;6.926;2022-12-29T05:17:13;2.00;;;0.77;;
65238;SDS011;51827;51.186;6.926;2022-12-29T05:18:13;0.57;;;0.57;;
65238;SDS011;51827;51.186;6.926;2022-12-29T05:19:13;0.60;;;0.60;;
65238;SDS011;51827;51.186;6.926;2022-12-29T05:20:13;0.80;;;0.70;;
65238;SDS011;51827;51.186;6.926;2022-12-29T05:21:14;1.73;;;0.90;;
65238;SDS011;51827;51.186;6.926;2022-12-29T05:22:14;0.60;;;0.60;;
65238;SDS011;51827;51.186;6.926;2022-12-29T05:23:14;0.87;;;0.70;;
65238;SDS011;51827;51.186;6.926;2022-12-29T05:24:15;0.95;;;0.82;;
65238;SDS011;51827;51.186;6.926;2022-12-29T05:25:15;0.98;;;0.70;;
65238;SDS011;51827;51.186;6.926;2022-12-29T05:26:16;1.03;;;0.67;;
65238;SDS011;51827;51.186;6.926;2022-12-29T05:27:16;1.40;;;0.70;;
65238;SDS011;51827;51.186;6.926;2022-12-29T05:28:16;1.02;;;0.68;;
65238;SDS011;51827;51.186;6.926;2022-12-29T05:29:17;0.87;;;0.70;;
65238;SDS011;51827;51.186;6.926;2022-12-29T05:30:17;1.60;;;0.70;;
65238;SDS011;51827;51.186;6.926;2022-12-29T05:31:17;0.73;;;0.70;;
65238;SDS011;51827;51.186;6.926;2022-12-29T05:32:17;0.80;;;0.70;;
65238;SDS011;51827;51.186;6.926;2022-12-29T05:33:18;0.93;;;0.80;;
65238;SDS011;51827;51.186;6.926;2022-12-29T05:34:19;1.30;;;0.80;;
65238;SDS011;51827;51.186;6.926;2022-12-29T05:35:19;1.13;;;0.77;;
65238;SDS011;51827;51.186;6.926;2022-12-29T05:36:19;0.60;;;0.60;;
65238;SDS011;51827;51.186;6.926;2022-12-29T05:37:20;0.75;;;0.70;;
65238;SDS011;51827;51.186;6.926;2022-12-29T05:38:20;1.37;;;0.83;;
65238;SDS011;51827;51.186;6.926;2022-12-29T05:39:20;1.23;;;0.70;;
65238;SDS011;51827;51.186;6.926;2022-12-29T05:40:20;1.07;;;0.80;;
65238;SDS011;51827;51.186;6.926;2022-12-29T05:41:21;1.53;;;0.70;;
65238;SDS011;51827;51.186;6.926;2022-12-29T05:42:21;0.90;;;0.60;;
65238;SDS011;51827;51.186;6.926;2022-12-29T05:43:21;0.83;;;0.80;;
65238;SDS011;51827;51.186;6.926;2022-12-29T05:44:21;0.63;;;0.50;;
65238;SDS011;51827;51.186;6.926;2022-12-29T05:45:22;0.90;;;0.60;;
65238;SDS011;51827;51.186;6.926;2022-12-29T05:46:22;1.87;;;0.70;;
65238;SDS011;51827;51.186;6.926;2022-12-29T05:47:22;0.67;;;0.60;;
65238;SDS011;51827;51.186;6.926;2022-12-29T05:48:22;1.10;;;0.77;;
65238;SDS011;51827;51.186;6.926;2022-12-29T05:49:23;1.77;;;0.80;;
65238;SDS011;51827;51.186;6.926;2022-12-29T05:50:23;1.10;;;0.80;;
65238;SDS011;51827;51.186;6.926;2022-12-29T05:51:23;0.83;;;0.60;;
65238;SDS011;51827;51.186;6.926;2022-12-29T05:52:23;0.63;;;0.63;;
65238;SDS011;51827;51.186;6.926;2022-12-29T05:53:24;1.80;;;0.70;;
65238;SDS011;51827;51.186;6.926;2022-12-29T05:54:24;0.73;;;0.60;;
65238;SDS011;51827;51.186;6.926;2022-12-29T05:55:24;0.70;;;0.70;;
65238;SDS011;51827;51.186;6.926;2022-12-29T05:56:25;0.87;;;0.63;;
65238;SDS011;51827;51.186;6.926;2022-12-29T05:57:25;0.83;;;0.60;;
65238;SDS011;51827;51.186;6.926;2022-12-29T05:58:25;0.60;;;0.60;;
65238;SDS011;51827;51.186;6.926;2022-12-29T05:59:25;1.17;;;0.80;;
65238;SDS011;51827;51.186;6.926;2022-12-29T06:00:26;0.70;;;0.70;;
65238;SDS011;51827;51.186;6.926;2022-12-29T06:01:26;0.60;;;0.60;;
65238;SDS011;51827;51.186;6.926;2022-12-29T06:02:26;1.93;;;0.80;;
65238;SDS011;51827;51.186;6.926;2022-12-29T06:03:26;1.80;;;0.70;;
65238;SDS011;51827;51.186;6.926;2022-12-29T06:04:27;1.10;;;0.70;;
65238;SDS011;51827;51.186;6.926;2022-12-29T06:05:27;0.97;;;0.73;;
65238;SDS011;51827;51.186;6.926;2022-12-29T06:06:27;0.77;;;0.77;;
65238;SDS011;51827;51.186;6.926;2022-12-29T06:07:28;0.70;;;0.63;;
65238;SDS011;51827;51.186;6.926;2022-12-29T06:08:28;1.23;;;0.73;;
65238;SDS011;51827;51.186;6.926;2022-12-29T06:09:28;0.90;;;0.80;;
65238;SDS011;51827;51.186;6.926;2022-12-29T06:10:28;0.57;;;0.53;;
65238;SDS011;51827;51.186;6.926;2022-12-29T06:11:29;0.87;;;0.77;;
65238;SDS011;51827;51.186;6.926;2022-12-29T06:12:29;1.63;;;0.80;;
65238;SDS011;51827;51.186;6.926;2022-12-29T06:13:29;0.70;;;0.70;;
65238;SDS011;51827;51.186;6.926;2022-12-29T06:14:29;0.77;;;0.70;;
65238;SDS011;51827;51.186;6.926;2022-12-29T06:15:30;0.80;;;0.60;;
65238;SDS011;51827;51.186;6.926;2022-12-29T06:16:30;1.27;;;0.80;;
65238;SDS011;51827;51.186;6.926;2022-12-29T06:17:30;1.27;;;0.60;;
65238;SDS011;51827;51.186;6.926;2022-12-29T06:18:30;0.83;;;0.60;;
65238;SDS011;51827;51.186;6.926;2022-12-29T06:19:30;0.60;;;0.60;;
65238;SDS011;51827;51.186;6.926;2022-12-29T06:20:31;0.90;;;0.60;;
65238;SDS011;51827;51.186;6.926;2022-12-29T06:21:31;0.93;;;0.70;;
65238;SDS011;51827;51.186;6.926;2022-12-29T06:22:31;0.80;;;0.80;;
65238;SDS011;51827;51.186;6.926;2022-12-29T06:23:31;1.10;;;0.70;;
65238;SDS011;51827;51.186;6.926;2022-12-29T06:24:32;0.80;;;0.60;;
65238;SDS011;51827;51.186;6.926;2022-12-29T06:25:32;2.27;;;0.87;;
65238;SDS011;51827;51.186;6.926;2022-12-29T06:26:32;0.50;;;0.50;;
65238;SDS011;51827;51.186;6.926;2022-12-29T06:27:32;1.20;;;0.70;;
65238;SDS011;51827;51.186;6.926;2022-12-29T06:28:33;0.67;;;0.60;;
65238;SDS011;51827;51.186;6.926;2022-12-29T06:29:33;0.57;;;0.57;;
65238;SDS011;51827;51.186;6.926;2022-12-29T06:30:33;1.37;;;0.70;;
65238;SDS011;51827;51.186;6.926;2022-12-29T06:31:33;1.27;;;0.80;;
65238;SDS011;51827;51.186;6.926;2022-12-29T06:32:34;1.07;;;0.80;;
65238;SDS011;51827;51.186;6.926;2022-12-29T06:33:35;1.15;;;0.60;;
65238;SDS011;51827;51.186;6.926;2022-12-29T06:34:35;1.10;;;0.80;;
65238;SDS011;51827;51.186;6.926;2022-12-29T06:35:35;2.33;;;0.90;;
65238;SDS011;51827;51.186;6.926;2022-12-29T06:36:35;1.37;;;0.70;;
65238;SDS011;51827;51.186;6.926;2022-12-29T06:37:36;1.27;;;0.70;;
65238;SDS011;51827;51.186;6.926;2022-12-29T06:38:36;0.77;;;0.63;;
65238;SDS011;51827;51.186;6.926;2022-12-29T06:39:36;0.70;;;0.67;;
65238;SDS011;51827;51.186;6.926;2022-12-29T06:40:37;1.15;;;0.80;;
65238;SDS011;51827;51.186;6.926;2022-12-29T06:41:37;1.33;;;0.73;;
65238;SDS011;51827;51.186;6.926;2022-12-29T06:42:37;1.03;;;0.80;;
65238;SDS011;51827;51.186;6.926;2022-12-29T06:43:37;0.70;;;0.63;;
65238;SDS011;51827;51.186;6.926;2022-12-29T06:44:37;0.70;;;0.70;;
65238;SDS011;51827;51.186;6.926;2022-12-29T06:45:38;0.80;;;0.73;;
65238;SDS011;51827;51.186;6.926;2022-12-29T06:46:39;0.75;;;0.65;;
65238;SDS011;51827;51.186;6.926;2022-12-29T06:47:39;2.00;;;0.70;;
65238;SDS011;51827;51.186;6.926;2022-12-29T06:48:40;0.87;;;0.70;;
65238;SDS011;51827;51.186;6.926;2022-12-29T06:49:40;2.70;;;0.90;;
65238;SDS011;51827;51.186;6.926;2022-12-29T06:50:40;0.97;;;0.70;;
65238;SDS011;51827;51.186;6.926;2022-12-29T06:51:40;0.83;;;0.70;;
65238;SDS011;51827;51.186;6.926;2022-12-29T06:52:41;0.80;;;0.70;;
65238;SDS011;51827;51.186;6.926;2022-12-29T06:53:41;0.87;;;0.80;;
65238;SDS011;51827;51.186;6.926;2022-12-29T06:54:41;1.70;;;0.80;;